sensor_id;sensor_type;location;lat;lon;timestamp;temperature;humidity
356;DHT22;62514;48.112;11.566;2024-01-30T00:02:13;-0.60;99.90
356;DHT22;62514;48.112;11.566;2024-01-30T00:04:39;-0.60;99.90
356;DHT22;62514;48.112;11.566;2024-01-30T00:07:05;-0.60;1.00
356;DHT22;62514;48.112;11.566;2024-01-30T00:09:31;-0.60;1.00
356;DHT22;62514;48.112;11.566;2024-01-30T00:11:57;-0.60;99.90
356;DHT22;62514;48.112;11.566;2024-01-30T00:14:23;-0.50;99.90
356;DHT22;62514;48.112;11.566;2024-01-30T00:16:50;-0.60;99.90
356;DHT22;62514;48.112;11.566;2024-01-30T00:19:16;-0.70;99.90
356;DHT22;62514;48.112;11.566;2024-01-30T00:21:42;-0.60;99.90
356;DHT22;62514;48.112;11.566;2024-01-30T00:24:08;-0.70;99.90
356;DHT22;62514;48.112;11.566;2024-01-30T00:26:34;-0.70;99.90
356;DHT22;62514;48.112;11.566;2024-01-30T00:29:00;-0.70;99.90
356;DHT22;62514;48.112;11.566;2024-01-30T00:31:26;-0.70;1.00
356;DHT22;62514;48.112;11.566;2024-01-30T00:33:52;-0.70;1.00
356;DHT22;62514;48.112;11.566;2024-01-30T00:36:18;-0.80;1.00
356;DHT22;62514;48.112;11.566;2024-01-30T00:38:43;-0.80;99.90
356;DHT22;62514;48.112;11.566;2024-01-30T00:41:10;-0.80;99.90
356;DHT22;62514;48.112;11.566;2024-01-30T00:43:36;-0.80;99.90
356;DHT22;62514;48.112;11.566;2024-01-30T00:46:02;-0.80;99.90
356;DHT22;62514;48.112;11.566;2024-01-30T00:48:29;-0.80;99.90
356;DHT22;62514;48.112;11.566;2024-01-30T00:50:55;-0.80;99.90
356;DHT22;62514;48.112;11.566;2024-01-30T00:53:21;-0.80;99.90
356;DHT22;62514;48.112;11.566;2024-01-30T00:55:47;-0.80;44.40
356;DHT22;62514;48.112;11.566;2024-01-30T00:58:13;-0.90;1.00
356;DHT22;62514;48.112;11.566;2024-01-30T01:00:39;-1.00;99.90
356;DHT22;62514;48.112;11.566;2024-01-30T01:03:05;-1.00;1.00
356;DHT22;62514;48.112;11.566;2024-01-30T01:05:31;-1.10;99.90
356;DHT22;62514;48.112;11.566;2024-01-30T01:07:57;-1.10;1.00
356;DHT22;62514;48.112;11.566;2024-01-30T01:10:23;-1.20;99.90
356;DHT22;62514;48.112;11.566;2024-01-30T01:12:49;-1.20;99.90
356;DHT22;62514;48.112;11.566;2024-01-30T01:15:15;-1.20;99.90
356;DHT22;62514;48.112;11.566;2024-01-30T01:17:47;-1.20;99.90
356;DHT22;62514;48.112;11.566;2024-01-30T01:20:13;-1.20;99.90
356;DHT22;62514;48.112;11.566;2024-01-30T01:22:39;-1.10;99.90
356;DHT22;62514;48.112;11.566;2024-01-30T01:25:06;-1.10;1.00
356;DHT22;62514;48.112;11.566;2024-01-30T01:27:36;-1.10;1.00
356;DHT22;62514;48.112;11.566;2024-01-30T01:30:10;-1.10;99.90
356;DHT22;62514;48.112;11.566;2024-01-30T01:32:37;-1.10;99.90
356;DHT22;62514;48.112;11.566;2024-01-30T01:35:04;-1.10;99.90
356;DHT22;62514;48.112;11.566;2024-01-30T01:37:31;-1.00;99.90
356;DHT22;62514;48.112;11.566;2024-01-30T01:39:57;-1.00;1.90
356;DHT22;62514;48.112;11.566;2024-01-30T01:42:23;-1.10;1.00
356;DHT22;62514;48.112;11.566;2024-01-30T01:44:49;-1.10;1.00
356;DHT22;62514;48.112;11.566;2024-01-30T01:47:15;-1.10;1.00
356;DHT22;62514;48.112;11.566;2024-01-30T01:49:41;-1.10;1.00
356;DHT22;62514;48.112;11.566;2024-01-30T01:52:07;-1.00;1.00
356;DHT22;62514;48.112;11.566;2024-01-30T01:54:33;-1.00;99.90
356;DHT22;62514;48.112;11.566;2024-01-30T01:56:59;-1.00;99.90
356;DHT22;62514;48.112;11.566;2024-01-30T01:59:25;-1.00;99.90
356;DHT22;62514;48.112;11.566;2024-01-30T02:01:54;-1.00;99.90
356;DHT22;62514;48.112;11.566;2024-01-30T02:04:21;-1.10;99.90
356;DHT22;62514;48.112;11.566;2024-01-30T02:06:47;-1.10;99.90
356;DHT22;62514;48.112;11.566;2024-01-30T02:09:13;-1.10;99.90
356;DHT22;62514;48.112;11.566;2024-01-30T02:11:39;-1.10;99.90
356;DHT22;62514;48.112;11.566;2024-01-30T02:14:06;-1.20;1.00
356;DHT22;62514;48.112;11.566;2024-01-30T02:16:32;-1.20;99.40
356;DHT22;62514;48.112;11.566;2024-01-30T02:18:58;-1.20;99.90
356;DHT22;62514;48.112;11.566;2024-01-30T02:21:24;-1.20;1.00
356;DHT22;62514;48.112;11.566;2024-01-30T02:23:51;-1.20;1.00
356;DHT22;62514;48.112;11.566;2024-01-30T02:26:18;-1.20;1.00
356;DHT22;62514;48.112;11.566;2024-01-30T02:28:43;-1.20;1.00
356;DHT22;62514;48.112;11.566;2024-01-30T02:31:09;-1.20;1.00
356;DHT22;62514;48.112;11.566;2024-01-30T02:33:35;-1.20;99.90
356;DHT22;62514;48.112;11.566;2024-01-30T02:36:01;-1.30;1.00
356;DHT22;62514;48.112;11.566;2024-01-30T02:38:28;-1.30;46.40
356;DHT22;62514;48.112;11.566;2024-01-30T02:40:54;-1.30;99.90
356;DHT22;62514;48.112;11.566;2024-01-30T02:43:21;-1.30;1.00
356;DHT22;62514;48.112;11.566;2024-01-30T02:45:47;-1.30;99.90
356;DHT22;62514;48.112;11.566;2024-01-30T02:48:12;-1.30;1.00
356;DHT22;62514;48.112;11.566;2024-01-30T02:50:38;-1.40;78.50
356;DHT22;62514;48.112;11.566;2024-01-30T02:53:04;-1.30;99.90
356;DHT22;62514;48.112;11.566;2024-01-30T02:55:30;-1.40;70.00
356;DHT22;62514;48.112;11.566;2024-01-30T02:57:56;-1.40;99.90
356;DHT22;62514;48.112;11.566;2024-01-30T03:00:22;-1.40;1.00
356;DHT22;62514;48.112;11.566;2024-01-30T03:02:48;-1.30;1.00
356;DHT22;62514;48.112;11.566;2024-01-30T03:05:14;-1.30;99.90
356;DHT22;62514;48.112;11.566;2024-01-30T03:07:40;-1.40;99.90
356;DHT22;62514;48.112;11.566;2024-01-30T03:10:06;-1.40;99.90
356;DHT22;62514;48.112;11.566;2024-01-30T03:12:32;-1.40;1.00
356;DHT22;62514;48.112;11.566;2024-01-30T03:14:58;-1.30;1.00
356;DHT22;62514;48.112;11.566;2024-01-30T03:17:24;-1.40;1.00
356;DHT22;62514;48.112;11.566;2024-01-30T03:19:50;-1.30;1.00
356;DHT22;62514;48.112;11.566;2024-01-30T03:22:17;-1.30;1.00
356;DHT22;62514;48.112;11.566;2024-01-30T03:24:43;-1.30;1.00
356;DHT22;62514;48.112;11.566;2024-01-30T03:27:09;-1.30;1.40
356;DHT22;62514;48.112;11.566;2024-01-30T03:29:35;-1.30;99.90
356;DHT22;62514;48.112;11.566;2024-01-30T03:32:01;-1.40;99.90
356;DHT22;62514;48.112;11.566;2024-01-30T03:34:27;-1.40;99.90
356;DHT22;62514;48.112;11.566;2024-01-30T03:36:53;-1.40;1.00
356;DHT22;62514;48.112;11.566;2024-01-30T03:39:19;-1.40;1.00
356;DHT22;62514;48.112;11.566;2024-01-30T03:41:45;-1.30;1.00
356;DHT22;62514;48.112;11.566;2024-01-30T03:44:11;-1.30;1.00
356;DHT22;62514;48.112;11.566;2024-01-30T03:46:37;-1.30;1.00
356;DHT22;62514;48.112;11.566;2024-01-30T03:49:03;-1.30;1.00
356;DHT22;62514;48.112;11.566;2024-01-30T03:51:29;-1.30;1.00
356;DHT22;62514;48.112;11.566;2024-01-30T03:53:55;-1.40;99.90
356;DHT22;62514;48.112;11.566;2024-01-30T03:56:21;-1.40;76.50
356;DHT22;62514;48.112;11.566;2024-01-30T03:58:47;-1.40;1.00
356;DHT22;62514;48.112;11.566;2024-01-30T04:01:16;-1.40;99.90
356;DHT22;62514;48.112;11.566;2024-01-30T04:03:42;-1.40;99.90
356;DHT22;62514;48.112;11.566;2024-01-30T04:06:09;-1.40;99.90
356;DHT22;62514;48.112;11.566;2024-01-30T04:08:37;-1.40;1.00
356;DHT22;62514;48.112;11.566;2024-01-30T04:11:06;-1.40;1.00
356;DHT22;62514;48.112;11.566;2024-01-30T04:13:32;-1.50;1.00
356;DHT22;62514;48.112;11.566;2024-01-30T04:15:59;-1.40;1.00
356;DHT22;62514;48.112;11.566;2024-01-30T04:18:27;-1.40;1.00
356;DHT22;62514;48.112;11.566;2024-01-30T04:20:54;-1.40;99.90
356;DHT22;62514;48.112;11.566;2024-01-30T04:23:20;-1.40;99.90
356;DHT22;62514;48.112;11.566;2024-01-30T04:25:46;-1.30;99.90
356;DHT22;62514;48.112;11.566;2024-01-30T04:28:12;-1.40;1.00
356;DHT22;62514;48.112;11.566;2024-01-30T04:30:38;-1.40;4.20
356;DHT22;62514;48.112;11.566;2024-01-30T04:33:04;-1.40;79.60
356;DHT22;62514;48.112;11.566;2024-01-30T04:35:30;-1.50;99.90
356;DHT22;62514;48.112;11.566;2024-01-30T04:37:56;-1.40;99.90
356;DHT22;62514;48.112;11.566;2024-01-30T04:40:22;-1.40;1.00
356;DHT22;62514;48.112;11.566;2024-01-30T04:42:48;-1.40;1.00
356;DHT22;62514;48.112;11.566;2024-01-30T04:45:14;-1.40;1.00
356;DHT22;62514;48.112;11.566;2024-01-30T04:47:40;-1.40;1.00
356;DHT22;62514;48.112;11.566;2024-01-30T04:50:07;-1.40;1.00
356;DHT22;62514;48.112;11.566;2024-01-30T04:52:34;-1.40;1.00
356;DHT22;62514;48.112;11.566;2024-01-30T04:55:01;-1.40;1.00
356;DHT22;62514;48.112;11.566;2024-01-30T04:57:27;-1.40;1.00
356;DHT22;62514;48.112;11.566;2024-01-30T04:59:55;-1.40;1.00
356;DHT22;62514;48.112;11.566;2024-01-30T05:02:21;-1.40;1.00
356;DHT22;62514;48.112;11.566;2024-01-30T05:04:47;-1.40;1.00
356;DHT22;62514;48.112;11.566;2024-01-30T05:07:13;-1.50;1.00
356;DHT22;62514;48.112;11.566;2024-01-30T05:09:39;-1.40;1.00
356;DHT22;62514;48.112;11.566;2024-01-30T05:12:05;-1.40;1.00
356;DHT22;62514;48.112;11.566;2024-01-30T05:14:31;-1.40;1.00
356;DHT22;62514;48.112;11.566;2024-01-30T05:16:57;-1.40;99.90
356;DHT22;62514;48.112;11.566;2024-01-30T05:19:23;-1.40;99.90
356;DHT22;62514;48.112;11.566;2024-01-30T05:21:49;-1.40;99.90
356;DHT22;62514;48.112;11.566;2024-01-30T05:24:15;-1.40;99.90
356;DHT22;62514;48.112;11.566;2024-01-30T05:26:41;-1.40;99.90
356;DHT22;62514;48.112;11.566;2024-01-30T05:29:07;-1.40;99.90
356;DHT22;62514;48.112;11.566;2024-01-30T05:31:34;-1.40;99.90
356;DHT22;62514;48.112;11.566;2024-01-30T05:34:00;-1.40;99.90
356;DHT22;62514;48.112;11.566;2024-01-30T05:36:26;-1.30;99.90
356;DHT22;62514;48.112;11.566;2024-01-30T05:38:52;-1.40;99.90
356;DHT22;62514;48.112;11.566;2024-01-30T05:41:19;-1.40;99.90
356;DHT22;62514;48.112;11.566;2024-01-30T05:43:45;-1.40;76.70
356;DHT22;62514;48.112;11.566;2024-01-30T05:46:11;-1.40;1.00
356;DHT22;62514;48.112;11.566;2024-01-30T05:48:36;-1.40;1.00
356;DHT22;62514;48.112;11.566;2024-01-30T05:51:03;-1.30;99.90
356;DHT22;62514;48.112;11.566;2024-01-30T05:53:29;-1.30;99.90
356;DHT22;62514;48.112;11.566;2024-01-30T05:55:55;-1.40;1.00
356;DHT22;62514;48.112;11.566;2024-01-30T05:58:21;-1.30;1.00
356;DHT22;62514;48.112;11.566;2024-01-30T06:00:47;-1.30;1.00
356;DHT22;62514;48.112;11.566;2024-01-30T06:03:13;-1.30;1.00
356;DHT22;62514;48.112;11.566;2024-01-30T06:05:39;-1.30;1.00
356;DHT22;62514;48.112;11.566;2024-01-30T06:08:05;-1.30;99.90
356;DHT22;62514;48.112;11.566;2024-01-30T06:10:31;-1.30;1.00
356;DHT22;62514;48.112;11.566;2024-01-30T06:12:57;-1.30;1.00
356;DHT22;62514;48.112;11.566;2024-01-30T06:15:23;-1.30;1.00
356;DHT22;62514;48.112;11.566;2024-01-30T06:17:49;-1.30;99.90
356;DHT22;62514;48.112;11.566;2024-01-30T06:20:15;-1.30;99.90
356;DHT22;62514;48.112;11.566;2024-01-30T06:22:41;-1.30;99.90
356;DHT22;62514;48.112;11.566;2024-01-30T06:25:07;-1.30;99.90
356;DHT22;62514;48.112;11.566;2024-01-30T06:27:33;-1.30;99.90
356;DHT22;62514;48.112;11.566;2024-01-30T06:29:59;-1.30;1.00
356;DHT22;62514;48.112;11.566;2024-01-30T06:32:25;-1.30;1.00
356;DHT22;62514;48.112;11.566;2024-01-30T06:34:51;-1.20;1.00
356;DHT22;62514;48.112;11.566;2024-01-30T06:37:17;-1.30;99.90
356;DHT22;62514;48.112;11.566;2024-01-30T06:39:43;-1.30;1.00
356;DHT22;62514;48.112;11.566;2024-01-30T06:42:09;-1.30;99.90
356;DHT22;62514;48.112;11.566;2024-01-30T06:44:35;-1.20;99.90
356;DHT22;62514;48.112;11.566;2024-01-30T06:47:01;-1.20;1.00
356;DHT22;62514;48.112;11.566;2024-01-30T06:49:27;-1.20;99.90
356;DHT22;62514;48.112;11.566;2024-01-30T06:51:53;-1.20;1.00
356;DHT22;62514;48.112;11.566;2024-01-30T06:54:19;-1.20;1.00
356;DHT22;62514;48.112;11.566;2024-01-30T06:56:45;-1.10;1.00
356;DHT22;62514;48.112;11.566;2024-01-30T06:59:10;-1.10;1.00
356;DHT22;62514;48.112;11.566;2024-01-30T07:01:36;-1.10;1.00
356;DHT22;62514;48.112;11.566;2024-01-30T07:04:02;-1.10;1.00
356;DHT22;62514;48.112;11.566;2024-01-30T07:06:28;-1.10;99.90
356;DHT22;62514;48.112;11.566;2024-01-30T07:08:54;-1.00;1.00
356;DHT22;62514;48.112;11.566;2024-01-30T07:11:21;-1.00;1.00
356;DHT22;62514;48.112;11.566;2024-01-30T07:13:51;-0.90;99.90
356;DHT22;62514;48.112;11.566;2024-01-30T07:16:17;-0.90;1.00
356;DHT22;62514;48.112;11.566;2024-01-30T07:18:43;-0.70;1.00
356;DHT22;62514;48.112;11.566;2024-01-30T07:21:09;-0.60;99.90
356;DHT22;62514;48.112;11.566;2024-01-30T07:23:36;-0.50;1.00
356;DHT22;62514;48.112;11.566;2024-01-30T07:26:05;-0.30;99.90
356;DHT22;62514;48.112;11.566;2024-01-30T07:28:32;-0.10;1.00
356;DHT22;62514;48.112;11.566;2024-01-30T07:30:59;0.10;99.90
356;DHT22;62514;48.112;11.566;2024-01-30T07:33:25;0.20;1.00
356;DHT22;62514;48.112;11.566;2024-01-30T07:35:52;0.50;1.00
356;DHT22;62514;48.112;11.566;2024-01-30T07:38:18;0.70;1.00
356;DHT22;62514;48.112;11.566;2024-01-30T07:40:44;0.90;99.90
356;DHT22;62514;48.112;11.566;2024-01-30T07:43:11;1.00;99.90
356;DHT22;62514;48.112;11.566;2024-01-30T07:45:37;1.10;1.00
356;DHT22;62514;48.112;11.566;2024-01-30T07:48:05;1.40;99.90
356;DHT22;62514;48.112;11.566;2024-01-30T07:50:31;1.50;1.00
356;DHT22;62514;48.112;11.566;2024-01-30T07:52:59;1.50;99.90
356;DHT22;62514;48.112;11.566;2024-01-30T07:55:26;1.70;99.90
356;DHT22;62514;48.112;11.566;2024-01-30T07:57:55;1.90;4.00
356;DHT22;62514;48.112;11.566;2024-01-30T08:00:21;2.00;1.00
356;DHT22;62514;48.112;11.566;2024-01-30T08:02:47;2.30;1.00
356;DHT22;62514;48.112;11.566;2024-01-30T08:05:14;2.60;99.90
356;DHT22;62514;48.112;11.566;2024-01-30T08:07:44;2.70;1.00
356;DHT22;62514;48.112;11.566;2024-01-30T08:10:11;2.90;1.00
356;DHT22;62514;48.112;11.566;2024-01-30T08:12:37;3.00;1.00
356;DHT22;62514;48.112;11.566;2024-01-30T08:15:05;3.20;99.90
356;DHT22;62514;48.112;11.566;2024-01-30T08:17:31;3.30;99.90
356;DHT22;62514;48.112;11.566;2024-01-30T08:19:57;3.50;80.70
356;DHT22;62514;48.112;11.566;2024-01-30T08:22:23;3.70;11.00
356;DHT22;62514;48.112;11.566;2024-01-30T08:24:49;3.80;37.60
356;DHT22;62514;48.112;11.566;2024-01-30T08:27:15;4.00;51.00
356;DHT22;62514;48.112;11.566;2024-01-30T08:29:41;4.20;1.00
356;DHT22;62514;48.112;11.566;2024-01-30T08:32:07;4.30;1.00
356;DHT22;62514;48.112;11.566;2024-01-30T08:34:33;4.50;1.00
356;DHT22;62514;48.112;11.566;2024-01-30T08:36:59;4.60;99.90
356;DHT22;62514;48.112;11.566;2024-01-30T08:39:25;4.80;99.90
356;DHT22;62514;48.112;11.566;2024-01-30T08:41:51;5.00;99.90
356;DHT22;62514;48.112;11.566;2024-01-30T08:44:17;5.00;99.90
356;DHT22;62514;48.112;11.566;2024-01-30T08:46:44;5.30;99.90
356;DHT22;62514;48.112;11.566;2024-01-30T08:49:11;5.50;1.00
356;DHT22;62514;48.112;11.566;2024-01-30T08:51:39;5.70;99.90
356;DHT22;62514;48.112;11.566;2024-01-30T08:54:05;6.00;99.90
356;DHT22;62514;48.112;11.566;2024-01-30T08:56:31;6.30;99.90
356;DHT22;62514;48.112;11.566;2024-01-30T08:58:57;6.40;99.90
356;DHT22;62514;48.112;11.566;2024-01-30T09:01:24;6.50;99.90
356;DHT22;62514;48.112;11.566;2024-01-30T09:03:50;6.70;99.90
356;DHT22;62514;48.112;11.566;2024-01-30T09:06:16;6.70;99.90
356;DHT22;62514;48.112;11.566;2024-01-30T09:08:42;6.90;99.90
356;DHT22;62514;48.112;11.566;2024-01-30T09:11:09;7.00;99.90
356;DHT22;62514;48.112;11.566;2024-01-30T09:13:36;7.30;99.90
356;DHT22;62514;48.112;11.566;2024-01-30T09:16:02;7.30;99.90
356;DHT22;62514;48.112;11.566;2024-01-30T09:18:27;7.40;99.90
356;DHT22;62514;48.112;11.566;2024-01-30T09:20:54;7.60;99.90
356;DHT22;62514;48.112;11.566;2024-01-30T09:23:20;7.80;99.90
356;DHT22;62514;48.112;11.566;2024-01-30T09:25:45;7.90;99.90
356;DHT22;62514;48.112;11.566;2024-01-30T09:28:11;8.10;99.90
356;DHT22;62514;48.112;11.566;2024-01-30T09:30:37;8.30;99.90
356;DHT22;62514;48.112;11.566;2024-01-30T09:33:05;8.50;99.90
356;DHT22;62514;48.112;11.566;2024-01-30T09:35:32;8.90;99.90
356;DHT22;62514;48.112;11.566;2024-01-30T09:37:58;9.40;70.60
356;DHT22;62514;48.112;11.566;2024-01-30T09:40:24;9.70;86.70
356;DHT22;62514;48.112;11.566;2024-01-30T09:42:51;10.10;57.10
356;DHT22;62514;48.112;11.566;2024-01-30T09:45:23;10.20;45.90
356;DHT22;62514;48.112;11.566;2024-01-30T09:47:49;10.50;1.00
356;DHT22;62514;48.112;11.566;2024-01-30T09:50:16;10.80;1.00
356;DHT22;62514;48.112;11.566;2024-01-30T09:52:46;10.80;1.00
356;DHT22;62514;48.112;11.566;2024-01-30T09:55:13;11.10;1.00
356;DHT22;62514;48.112;11.566;2024-01-30T09:57:39;11.50;1.00
356;DHT22;62514;48.112;11.566;2024-01-30T10:00:06;11.80;1.00
356;DHT22;62514;48.112;11.566;2024-01-30T10:02:35;12.00;1.00
356;DHT22;62514;48.112;11.566;2024-01-30T10:05:02;12.30;1.00
356;DHT22;62514;48.112;11.566;2024-01-30T10:07:28;12.50;1.00
356;DHT22;62514;48.112;11.566;2024-01-30T10:09:54;12.70;1.00
356;DHT22;62514;48.112;11.566;2024-01-30T10:12:22;12.90;1.00
356;DHT22;62514;48.112;11.566;2024-01-30T10:14:49;13.10;1.00
356;DHT22;62514;48.112;11.566;2024-01-30T10:17:15;13.30;1.00
356;DHT22;62514;48.112;11.566;2024-01-30T10:19:41;13.60;1.00
356;DHT22;62514;48.112;11.566;2024-01-30T10:22:08;14.00;1.00
356;DHT22;62514;48.112;11.566;2024-01-30T10:24:35;14.30;1.00
356;DHT22;62514;48.112;11.566;2024-01-30T10:27:01;14.80;1.00
356;DHT22;62514;48.112;11.566;2024-01-30T10:29:28;15.60;1.00
356;DHT22;62514;48.112;11.566;2024-01-30T10:32:04;16.60;1.00
356;DHT22;62514;48.112;11.566;2024-01-30T10:34:31;17.50;99.90
356;DHT22;62514;48.112;11.566;2024-01-30T10:37:07;18.00;1.00
356;DHT22;62514;48.112;11.566;2024-01-30T10:39:39;18.00;99.90
356;DHT22;62514;48.112;11.566;2024-01-30T10:42:07;17.50;99.90
356;DHT22;62514;48.112;11.566;2024-01-30T10:44:45;17.30;1.00
356;DHT22;62514;48.112;11.566;2024-01-30T10:47:20;17.20;99.90
356;DHT22;62514;48.112;11.566;2024-01-30T10:49:47;17.20;1.00
356;DHT22;62514;48.112;11.566;2024-01-30T10:52:14;17.90;1.00
356;DHT22;62514;48.112;11.566;2024-01-30T10:54:44;19.00;1.00
356;DHT22;62514;48.112;11.566;2024-01-30T10:57:11;20.10;1.00
356;DHT22;62514;48.112;11.566;2024-01-30T10:59:38;21.30;1.00
356;DHT22;62514;48.112;11.566;2024-01-30T11:02:05;22.00;1.00
356;DHT22;62514;48.112;11.566;2024-01-30T11:04:43;22.90;99.90
356;DHT22;62514;48.112;11.566;2024-01-30T11:07:24;23.80;1.00
356;DHT22;62514;48.112;11.566;2024-01-30T11:09:59;23.90;1.00
356;DHT22;62514;48.112;11.566;2024-01-30T11:12:31;23.70;1.00
356;DHT22;62514;48.112;11.566;2024-01-30T11:20:26;24.60;1.00
356;DHT22;62514;48.112;11.566;2024-01-30T11:22:54;25.20;1.00
356;DHT22;62514;48.112;11.566;2024-01-30T11:25:21;25.40;1.00
356;DHT22;62514;48.112;11.566;2024-01-30T11:27:51;25.80;1.00
356;DHT22;62514;48.112;11.566;2024-01-30T11:30:22;26.10;1.00
356;DHT22;62514;48.112;11.566;2024-01-30T11:33:27;26.30;1.00
356;DHT22;62514;48.112;11.566;2024-01-30T11:35:58;27.40;1.00
356;DHT22;62514;48.112;11.566;2024-01-30T11:38:28;28.30;1.00
356;DHT22;62514;48.112;11.566;2024-01-30T11:40:55;28.30;1.00
356;DHT22;62514;48.112;11.566;2024-01-30T11:43:23;28.00;1.00
356;DHT22;62514;48.112;11.566;2024-01-30T11:45:50;26.90;1.00
356;DHT22;62514;48.112;11.566;2024-01-30T11:48:16;25.90;1.00
356;DHT22;62514;48.112;11.566;2024-01-30T11:50:42;24.90;1.00
356;DHT22;62514;48.112;11.566;2024-01-30T11:53:10;24.20;1.00
356;DHT22;62514;48.112;11.566;2024-01-30T11:55:39;23.70;1.00
356;DHT22;62514;48.112;11.566;2024-01-30T11:58:05;24.00;1.00
356;DHT22;62514;48.112;11.566;2024-01-30T12:00:31;24.30;1.00
356;DHT22;62514;48.112;11.566;2024-01-30T12:02:58;24.90;1.00
356;DHT22;62514;48.112;11.566;2024-01-30T12:05:26;25.20;1.00
356;DHT22;62514;48.112;11.566;2024-01-30T12:07:53;25.20;1.00
356;DHT22;62514;48.112;11.566;2024-01-30T12:10:19;25.90;1.00
356;DHT22;62514;48.112;11.566;2024-01-30T12:12:51;27.00;1.00
356;DHT22;62514;48.112;11.566;2024-01-30T12:15:18;26.90;1.00
356;DHT22;62514;48.112;11.566;2024-01-30T12:17:47;26.80;1.00
356;DHT22;62514;48.112;11.566;2024-01-30T12:20:15;27.70;1.00
356;DHT22;62514;48.112;11.566;2024-01-30T12:22:48;27.50;1.00
356;DHT22;62514;48.112;11.566;2024-01-30T12:25:18;27.20;1.00
356;DHT22;62514;48.112;11.566;2024-01-30T12:27:49;27.10;1.00
356;DHT22;62514;48.112;11.566;2024-01-30T12:30:17;26.60;1.00
356;DHT22;62514;48.112;11.566;2024-01-30T12:32:45;25.20;1.00
356;DHT22;62514;48.112;11.566;2024-01-30T12:35:15;24.10;1.00
356;DHT22;62514;48.112;11.566;2024-01-30T12:37:43;23.10;1.00
356;DHT22;62514;48.112;11.566;2024-01-30T12:40:10;22.50;1.00
356;DHT22;62514;48.112;11.566;2024-01-30T12:42:39;22.20;1.00
356;DHT22;62514;48.112;11.566;2024-01-30T12:45:05;21.50;1.00
356;DHT22;62514;48.112;11.566;2024-01-30T12:47:31;20.90;1.00
356;DHT22;62514;48.112;11.566;2024-01-30T12:49:58;20.40;1.00
356;DHT22;62514;48.112;11.566;2024-01-30T12:52:24;20.10;1.00
356;DHT22;62514;48.112;11.566;2024-01-30T12:54:51;20.50;1.00
356;DHT22;62514;48.112;11.566;2024-01-30T12:57:17;20.90;1.00
356;DHT22;62514;48.112;11.566;2024-01-30T12:59:45;21.40;1.00
356;DHT22;62514;48.112;11.566;2024-01-30T13:02:12;22.00;1.00
356;DHT22;62514;48.112;11.566;2024-01-30T13:04:39;22.30;1.00
356;DHT22;62514;48.112;11.566;2024-01-30T13:07:05;22.50;1.00
356;DHT22;62514;48.112;11.566;2024-01-30T13:09:31;22.70;1.00
356;DHT22;62514;48.112;11.566;2024-01-30T13:11:58;23.00;1.00
356;DHT22;62514;48.112;11.566;2024-01-30T13:14:24;23.70;1.00
356;DHT22;62514;48.112;11.566;2024-01-30T13:16:50;24.80;1.00
356;DHT22;62514;48.112;11.566;2024-01-30T13:19:17;25.90;1.00
356;DHT22;62514;48.112;11.566;2024-01-30T13:21:43;26.60;1.00
356;DHT22;62514;48.112;11.566;2024-01-30T13:24:09;26.80;1.00
356;DHT22;62514;48.112;11.566;2024-01-30T13:26:35;26.50;1.00
356;DHT22;62514;48.112;11.566;2024-01-30T13:29:01;26.00;1.00
356;DHT22;62514;48.112;11.566;2024-01-30T13:31:28;25.70;1.00
356;DHT22;62514;48.112;11.566;2024-01-30T13:33:54;25.20;1.00
356;DHT22;62514;48.112;11.566;2024-01-30T13:36:21;24.50;1.00
356;DHT22;62514;48.112;11.566;2024-01-30T13:38:47;24.10;1.00
356;DHT22;62514;48.112;11.566;2024-01-30T13:41:13;23.90;1.00
356;DHT22;62514;48.112;11.566;2024-01-30T13:43:39;23.20;1.00
356;DHT22;62514;48.112;11.566;2024-01-30T13:46:05;22.80;1.00
356;DHT22;62514;48.112;11.566;2024-01-30T13:48:31;22.90;1.00
356;DHT22;62514;48.112;11.566;2024-01-30T13:50:57;22.50;1.00
356;DHT22;62514;48.112;11.566;2024-01-30T13:53:23;21.40;1.00
356;DHT22;62514;48.112;11.566;2024-01-30T13:55:49;19.70;1.00
356;DHT22;62514;48.112;11.566;2024-01-30T13:58:15;18.70;1.00
356;DHT22;62514;48.112;11.566;2024-01-30T14:00:41;18.50;1.00
356;DHT22;62514;48.112;11.566;2024-01-30T14:03:07;18.10;1.00
356;DHT22;62514;48.112;11.566;2024-01-30T14:05:33;18.00;1.00
356;DHT22;62514;48.112;11.566;2024-01-30T14:07:59;18.30;1.00
356;DHT22;62514;48.112;11.566;2024-01-30T14:10:26;18.50;1.00
356;DHT22;62514;48.112;11.566;2024-01-30T14:12:52;18.80;1.00
356;DHT22;62514;48.112;11.566;2024-01-30T14:15:18;18.50;1.00
356;DHT22;62514;48.112;11.566;2024-01-30T14:17:44;18.40;1.00
356;DHT22;62514;48.112;11.566;2024-01-30T14:20:15;17.60;1.00
356;DHT22;62514;48.112;11.566;2024-01-30T14:22:42;17.40;1.00
356;DHT22;62514;48.112;11.566;2024-01-30T14:25:08;17.60;1.00
356;DHT22;62514;48.112;11.566;2024-01-30T14:27:35;17.70;1.00
356;DHT22;62514;48.112;11.566;2024-01-30T14:30:01;17.60;1.00
356;DHT22;62514;48.112;11.566;2024-01-30T14:32:28;17.20;1.00
356;DHT22;62514;48.112;11.566;2024-01-30T14:34:54;16.80;1.00
356;DHT22;62514;48.112;11.566;2024-01-30T14:37:21;16.60;1.00
356;DHT22;62514;48.112;11.566;2024-01-30T14:39:47;16.40;1.00
356;DHT22;62514;48.112;11.566;2024-01-30T14:42:14;16.20;1.00
356;DHT22;62514;48.112;11.566;2024-01-30T14:44:41;15.90;1.00
356;DHT22;62514;48.112;11.566;2024-01-30T14:47:07;15.70;1.00
356;DHT22;62514;48.112;11.566;2024-01-30T14:49:33;15.60;1.00
356;DHT22;62514;48.112;11.566;2024-01-30T14:52:00;15.30;1.00
356;DHT22;62514;48.112;11.566;2024-01-30T14:54:27;15.10;1.00
356;DHT22;62514;48.112;11.566;2024-01-30T14:56:53;14.90;1.00
356;DHT22;62514;48.112;11.566;2024-01-30T14:59:19;14.70;1.00
356;DHT22;62514;48.112;11.566;2024-01-30T15:01:45;14.60;1.00
356;DHT22;62514;48.112;11.566;2024-01-30T15:04:12;14.50;1.00
356;DHT22;62514;48.112;11.566;2024-01-30T15:06:38;14.10;1.00
356;DHT22;62514;48.112;11.566;2024-01-30T15:09:05;13.90;1.00
356;DHT22;62514;48.112;11.566;2024-01-30T15:11:32;13.70;1.00
356;DHT22;62514;48.112;11.566;2024-01-30T15:13:58;13.50;1.00
356;DHT22;62514;48.112;11.566;2024-01-30T15:16:24;13.40;1.00
356;DHT22;62514;48.112;11.566;2024-01-30T15:18:50;13.20;1.00
356;DHT22;62514;48.112;11.566;2024-01-30T15:21:16;12.90;1.00
356;DHT22;62514;48.112;11.566;2024-01-30T15:23:48;12.70;1.00
356;DHT22;62514;48.112;11.566;2024-01-30T15:26:14;12.50;1.00
356;DHT22;62514;48.112;11.566;2024-01-30T15:28:40;12.30;99.90
356;DHT22;62514;48.112;11.566;2024-01-30T15:31:07;11.90;99.90
356;DHT22;62514;48.112;11.566;2024-01-30T15:33:33;11.80;99.90
356;DHT22;62514;48.112;11.566;2024-01-30T15:36:00;11.50;1.00
356;DHT22;62514;48.112;11.566;2024-01-30T15:38:26;11.30;1.00
356;DHT22;62514;48.112;11.566;2024-01-30T15:40:53;11.10;99.90
356;DHT22;62514;48.112;11.566;2024-01-30T15:43:19;10.80;99.90
356;DHT22;62514;48.112;11.566;2024-01-30T15:45:45;10.70;1.00
356;DHT22;62514;48.112;11.566;2024-01-30T15:48:11;10.50;1.00
356;DHT22;62514;48.112;11.566;2024-01-30T15:50:37;10.30;1.00
356;DHT22;62514;48.112;11.566;2024-01-30T15:53:03;10.20;1.00
356;DHT22;62514;48.112;11.566;2024-01-30T15:55:29;9.90;1.00
356;DHT22;62514;48.112;11.566;2024-01-30T15:57:55;9.80;1.00
356;DHT22;62514;48.112;11.566;2024-01-30T16:00:21;9.60;1.00